sensor_id;sensor_type;location;lat;lon;timestamp;P1;durP1;ratioP1;P2;durP2;ratioP2
12884;SDS011;6510;51.362;7.370;2022-12-10T00:01:21;47.47;;;24.53;;
12884;SDS011;6510;51.362;7.370;2022-12-10T00:03:48;53.43;;;25.83;;
12884;SDS011;6510;51.362;7.370;2022-12-10T00:06:18;55.47;;;26.43;;
12884;SDS011;6510;51.362;7.370;2022-12-10T00:08:47;57.30;;;26.83;;
12884;SDS011;6510;51.362;7.370;2022-12-10T00:11:14;52.47;;;26.20;;
12884;SDS011;6510;51.362;7.370;2022-12-10T00:13:42;53.77;;;26.27;;
12884;SDS011;6510;51.362;7.370;2022-12-10T00:16:09;57.53;;;27.63;;
12884;SDS011;6510;51.362;7.370;2022-12-10T00:18:36;54.67;;;25.33;;
12884;SDS011;6510;51.362;7.370;2022-12-10T00:21:06;52.13;;;25.83;;
12884;SDS011;6510;51.362;7.370;2022-12-10T00:23:34;53.43;;;26.77;;
12884;SDS011;6510;51.362;7.370;2022-12-10T00:26:06;51.70;;;27.47;;
12884;SDS011;6510;51.362;7.370;2022-12-10T00:28:39;59.60;;;27.70;;
12884;SDS011;6510;51.362;7.370;2022-12-10T00:31:06;60.53;;;29.63;;
12884;SDS011;6510;51.362;7.370;2022-12-10T00:33:33;63.43;;;28.20;;
12884;SDS011;6510;51.362;7.370;2022-12-10T00:36:34;64.97;;;29.60;;
12884;SDS011;6510;51.362;7.370;2022-12-10T00:38:57;59.43;;;28.27;;
12884;SDS011;6510;51.362;7.370;2022-12-10T00:41:23;60.77;;;27.70;;
12884;SDS011;6510;51.362;7.370;2022-12-10T00:43:49;59.33;;;29.50;;
12884;SDS011;6510;51.362;7.370;2022-12-10T00:46:15;54.87;;;26.87;;
12884;SDS011;6510;51.362;7.370;2022-12-10T00:48:42;56.97;;;28.23;;
12884;SDS011;6510;51.362;7.370;2022-12-10T00:51:16;53.63;;;26.63;;
12884;SDS011;6510;51.362;7.370;2022-12-10T00:53:47;52.87;;;26.23;;
12884;SDS011;6510;51.362;7.370;2022-12-10T00:56:14;55.00;;;26.70;;
12884;SDS011;6510;51.362;7.370;2022-12-10T00:58:41;55.00;;;26.93;;
12884;SDS011;6510;51.362;7.370;2022-12-10T01:03:45;53.27;;;27.13;;
12884;SDS011;6510;51.362;7.370;2022-12-10T01:06:15;53.27;;;25.90;;
12884;SDS011;6510;51.362;7.370;2022-12-10T01:08:42;54.10;;;25.97;;
12884;SDS011;6510;51.362;7.370;2022-12-10T01:11:09;50.63;;;26.43;;
12884;SDS011;6510;51.362;7.370;2022-12-10T01:13:36;47.57;;;26.37;;
12884;SDS011;6510;51.362;7.370;2022-12-10T01:16:03;56.03;;;27.83;;
12884;SDS011;6510;51.362;7.370;2022-12-10T01:18:30;49.37;;;26.47;;
12884;SDS011;6510;51.362;7.370;2022-12-10T01:21:00;50.93;;;25.90;;
12884;SDS011;6510;51.362;7.370;2022-12-10T01:23:34;49.63;;;26.07;;
12884;SDS011;6510;51.362;7.370;2022-12-10T01:26:02;51.13;;;25.77;;
12884;SDS011;6510;51.362;7.370;2022-12-10T01:28:31;45.40;;;23.60;;
12884;SDS011;6510;51.362;7.370;2022-12-10T01:31:06;43.50;;;23.03;;
12884;SDS011;6510;51.362;7.370;2022-12-10T01:33:35;48.53;;;24.93;;
12884;SDS011;6510;51.362;7.370;2022-12-10T01:36:05;46.10;;;25.37;;
12884;SDS011;6510;51.362;7.370;2022-12-10T01:38:41;47.93;;;26.30;;
12884;SDS011;6510;51.362;7.370;2022-12-10T01:41:08;50.37;;;24.70;;
12884;SDS011;6510;51.362;7.370;2022-12-10T01:43:57;54.77;;;26.60;;
12884;SDS011;6510;51.362;7.370;2022-12-10T01:46:26;53.30;;;26.60;;
12884;SDS011;6510;51.362;7.370;2022-12-10T01:48:59;43.27;;;24.70;;
12884;SDS011;6510;51.362;7.370;2022-12-10T01:51:29;50.13;;;26.30;;
12884;SDS011;6510;51.362;7.370;2022-12-10T01:53:57;50.77;;;25.33;;
12884;SDS011;6510;51.362;7.370;2022-12-10T01:56:23;49.30;;;24.80;;
12884;SDS011;6510;51.362;7.370;2022-12-10T01:58:49;44.90;;;23.67;;
12884;SDS011;6510;51.362;7.370;2022-12-10T02:09:50;41.67;;;22.43;;
12884;SDS011;6510;51.362;7.370;2022-12-10T02:17:47;27.60;;;16.10;;
12884;SDS011;6510;51.362;7.370;2022-12-10T02:22:51;28.80;;;15.20;;
12884;SDS011;6510;51.362;7.370;2022-12-10T02:25:32;28.03;;;16.30;;
12884;SDS011;6510;51.362;7.370;2022-12-10T02:28:29;27.30;;;16.03;;
12884;SDS011;6510;51.362;7.370;2022-12-10T02:31:17;24.13;;;14.27;;
12884;SDS011;6510;51.362;7.370;2022-12-10T02:33:48;20.23;;;13.13;;
12884;SDS011;6510;51.362;7.370;2022-12-10T02:36:16;21.20;;;13.23;;
12884;SDS011;6510;51.362;7.370;2022-12-10T02:38:45;22.87;;;14.07;;
12884;SDS011;6510;51.362;7.370;2022-12-10T02:41:14;22.07;;;13.53;;
12884;SDS011;6510;51.362;7.370;2022-12-10T02:43:49;19.53;;;12.20;;
12884;SDS011;6510;51.362;7.370;2022-12-10T02:46:17;25.30;;;12.70;;
12884;SDS011;6510;51.362;7.370;2022-12-10T02:48:43;20.73;;;13.27;;
12884;SDS011;6510;51.362;7.370;2022-12-10T02:51:11;22.43;;;13.57;;
12884;SDS011;6510;51.362;7.370;2022-12-10T02:53:43;23.17;;;13.90;;
12884;SDS011;6510;51.362;7.370;2022-12-10T02:59:28;20.17;;;12.03;;
12884;SDS011;6510;51.362;7.370;2022-12-10T03:02:12;21.47;;;13.27;;
12884;SDS011;6510;51.362;7.370;2022-12-10T03:07:25;20.37;;;12.37;;
12884;SDS011;6510;51.362;7.370;2022-12-10T03:10:03;19.10;;;12.53;;
12884;SDS011;6510;51.362;7.370;2022-12-10T03:12:42;20.83;;;12.87;;
12884;SDS011;6510;51.362;7.370;2022-12-10T03:15:13;23.60;;;13.90;;
12884;SDS011;6510;51.362;7.370;2022-12-10T03:21:11;19.40;;;11.67;;
12884;SDS011;6510;51.362;7.370;2022-12-10T03:24:04;17.40;;;11.67;;
12884;SDS011;6510;51.362;7.370;2022-12-10T03:26:39;19.67;;;12.33;;
12884;SDS011;6510;51.362;7.370;2022-12-10T03:29:10;21.77;;;13.13;;
12884;SDS011;6510;51.362;7.370;2022-12-10T03:31:44;20.43;;;12.50;;
12884;SDS011;6510;51.362;7.370;2022-12-10T03:34:14;21.47;;;13.67;;
12884;SDS011;6510;51.362;7.370;2022-12-10T03:36:40;20.50;;;13.10;;
12884;SDS011;6510;51.362;7.370;2022-12-10T03:39:07;23.73;;;14.60;;
12884;SDS011;6510;51.362;7.370;2022-12-10T03:41:33;27.00;;;15.77;;
12884;SDS011;6510;51.362;7.370;2022-12-10T03:43:59;27.53;;;15.93;;
12884;SDS011;6510;51.362;7.370;2022-12-10T03:46:26;23.07;;;14.33;;
12884;SDS011;6510;51.362;7.370;2022-12-10T03:48:53;26.23;;;14.37;;
12884;SDS011;6510;51.362;7.370;2022-12-10T03:51:19;21.80;;;14.13;;
12884;SDS011;6510;51.362;7.370;2022-12-10T03:53:45;24.13;;;13.80;;
12884;SDS011;6510;51.362;7.370;2022-12-10T03:56:13;20.80;;;12.97;;
12884;SDS011;6510;51.362;7.370;2022-12-10T03:58:39;21.87;;;13.10;;
12884;SDS011;6510;51.362;7.370;2022-12-10T04:01:08;21.20;;;12.90;;
12884;SDS011;6510;51.362;7.370;2022-12-10T04:03:34;24.30;;;13.93;;
12884;SDS011;6510;51.362;7.370;2022-12-10T04:06:05;20.80;;;12.53;;
12884;SDS011;6510;51.362;7.370;2022-12-10T04:08:33;20.43;;;12.93;;
12884;SDS011;6510;51.362;7.370;2022-12-10T04:11:04;24.00;;;12.83;;
12884;SDS011;6510;51.362;7.370;2022-12-10T04:13:32;22.40;;;12.70;;
12884;SDS011;6510;51.362;7.370;2022-12-10T04:16:17;22.10;;;12.73;;
12884;SDS011;6510;51.362;7.370;2022-12-10T04:18:52;22.00;;;13.07;;
12884;SDS011;6510;51.362;7.370;2022-12-10T04:21:18;19.13;;;12.20;;
12884;SDS011;6510;51.362;7.370;2022-12-10T04:24:03;18.37;;;12.00;;
12884;SDS011;6510;51.362;7.370;2022-12-10T04:26:47;20.23;;;12.40;;
12884;SDS011;6510;51.362;7.370;2022-12-10T04:29:19;22.90;;;13.37;;
12884;SDS011;6510;51.362;7.370;2022-12-10T04:31:45;22.93;;;12.97;;
12884;SDS011;6510;51.362;7.370;2022-12-10T04:34:13;20.40;;;12.37;;
12884;SDS011;6510;51.362;7.370;2022-12-10T04:36:39;24.07;;;13.60;;
12884;SDS011;6510;51.362;7.370;2022-12-10T04:39:04;23.57;;;13.63;;
12884;SDS011;6510;51.362;7.370;2022-12-10T04:41:30;23.97;;;13.53;;
12884;SDS011;6510;51.362;7.370;2022-12-10T04:43:56;23.80;;;13.70;;
12884;SDS011;6510;51.362;7.370;2022-12-10T04:46:22;22.13;;;13.17;;
12884;SDS011;6510;51.362;7.370;2022-12-10T04:48:48;21.17;;;12.90;;
12884;SDS011;6510;51.362;7.370;2022-12-10T04:51:13;19.23;;;12.73;;
12884;SDS011;6510;51.362;7.370;2022-12-10T04:53:39;22.23;;;13.63;;
12884;SDS011;6510;51.362;7.370;2022-12-10T04:56:05;20.53;;;12.37;;
12884;SDS011;6510;51.362;7.370;2022-12-10T04:58:32;19.53;;;11.83;;
12884;SDS011;6510;51.362;7.370;2022-12-10T05:01:04;21.83;;;12.70;;
12884;SDS011;6510;51.362;7.370;2022-12-10T05:03:32;19.97;;;11.93;;
12884;SDS011;6510;51.362;7.370;2022-12-10T05:06:03;18.47;;;12.63;;
12884;SDS011;6510;51.362;7.370;2022-12-10T05:08:30;20.37;;;12.40;;
12884;SDS011;6510;51.362;7.370;2022-12-10T05:13:48;20.83;;;13.17;;
12884;SDS011;6510;51.362;7.370;2022-12-10T05:16:16;21.23;;;12.27;;
12884;SDS011;6510;51.362;7.370;2022-12-10T05:18:44;19.47;;;11.83;;
12884;SDS011;6510;51.362;7.370;2022-12-10T05:21:11;20.30;;;11.70;;
12884;SDS011;6510;51.362;7.370;2022-12-10T05:23:40;18.07;;;12.00;;
12884;SDS011;6510;51.362;7.370;2022-12-10T05:26:09;18.40;;;11.67;;
12884;SDS011;6510;51.362;7.370;2022-12-10T05:28:40;17.77;;;11.37;;
12884;SDS011;6510;51.362;7.370;2022-12-10T05:31:15;19.30;;;11.70;;
12884;SDS011;6510;51.362;7.370;2022-12-10T05:33:42;19.30;;;11.47;;
12884;SDS011;6510;51.362;7.370;2022-12-10T05:36:08;20.27;;;12.20;;
12884;SDS011;6510;51.362;7.370;2022-12-10T05:38:35;20.20;;;11.37;;
12884;SDS011;6510;51.362;7.370;2022-12-10T05:41:02;20.97;;;11.87;;
12884;SDS011;6510;51.362;7.370;2022-12-10T05:43:29;18.80;;;12.03;;
12884;SDS011;6510;51.362;7.370;2022-12-10T05:45:58;20.53;;;11.63;;
12884;SDS011;6510;51.362;7.370;2022-12-10T05:48:28;17.80;;;10.30;;
12884;SDS011;6510;51.362;7.370;2022-12-10T05:50:54;19.13;;;11.53;;
12884;SDS011;6510;51.362;7.370;2022-12-10T05:53:20;18.13;;;10.67;;
12884;SDS011;6510;51.362;7.370;2022-12-10T05:55:46;16.93;;;10.90;;
12884;SDS011;6510;51.362;7.370;2022-12-10T05:58:11;18.73;;;10.70;;
12884;SDS011;6510;51.362;7.370;2022-12-10T06:00:39;19.30;;;10.77;;
12884;SDS011;6510;51.362;7.370;2022-12-10T06:03:05;17.47;;;10.67;;
12884;SDS011;6510;51.362;7.370;2022-12-10T06:05:38;19.03;;;11.73;;
12884;SDS011;6510;51.362;7.370;2022-12-10T06:08:04;19.50;;;11.50;;
12884;SDS011;6510;51.362;7.370;2022-12-10T06:10:30;16.63;;;11.33;;
12884;SDS011;6510;51.362;7.370;2022-12-10T06:12:56;19.43;;;11.77;;
12884;SDS011;6510;51.362;7.370;2022-12-10T06:15:21;20.30;;;12.77;;
12884;SDS011;6510;51.362;7.370;2022-12-10T06:17:47;21.83;;;12.33;;
12884;SDS011;6510;51.362;7.370;2022-12-10T06:20:13;18.77;;;10.90;;
12884;SDS011;6510;51.362;7.370;2022-12-10T06:22:41;17.93;;;10.77;;
12884;SDS011;6510;51.362;7.370;2022-12-10T06:25:07;19.40;;;9.80;;
12884;SDS011;6510;51.362;7.370;2022-12-10T06:27:33;17.20;;;11.43;;
12884;SDS011;6510;51.362;7.370;2022-12-10T06:29:59;19.33;;;10.33;;
12884;SDS011;6510;51.362;7.370;2022-12-10T06:32:24;18.43;;;11.53;;
12884;SDS011;6510;51.362;7.370;2022-12-10T06:34:50;18.20;;;11.13;;
12884;SDS011;6510;51.362;7.370;2022-12-10T06:37:16;17.90;;;10.67;;
12884;SDS011;6510;51.362;7.370;2022-12-10T06:39:41;17.80;;;10.60;;
12884;SDS011;6510;51.362;7.370;2022-12-10T06:42:07;18.27;;;11.33;;
12884;SDS011;6510;51.362;7.370;2022-12-10T06:44:33;17.17;;;10.37;;
12884;SDS011;6510;51.362;7.370;2022-12-10T06:46:59;19.60;;;11.23;;
12884;SDS011;6510;51.362;7.370;2022-12-10T06:49:24;19.43;;;11.10;;
12884;SDS011;6510;51.362;7.370;2022-12-10T06:51:50;19.63;;;11.00;;
12884;SDS011;6510;51.362;7.370;2022-12-10T06:54:15;19.07;;;11.20;;
12884;SDS011;6510;51.362;7.370;2022-12-10T06:56:41;18.37;;;11.03;;
12884;SDS011;6510;51.362;7.370;2022-12-10T06:59:07;20.03;;;11.87;;
12884;SDS011;6510;51.362;7.370;2022-12-10T07:01:32;18.93;;;11.27;;
12884;SDS011;6510;51.362;7.370;2022-12-10T07:03:58;19.47;;;11.73;;
12884;SDS011;6510;51.362;7.370;2022-12-10T07:06:24;22.73;;;14.23;;
12884;SDS011;6510;51.362;7.370;2022-12-10T07:08:51;26.00;;;17.00;;
12884;SDS011;6510;51.362;7.370;2022-12-10T07:11:18;21.37;;;12.40;;
12884;SDS011;6510;51.362;7.370;2022-12-10T07:13:46;19.77;;;11.70;;
12884;SDS011;6510;51.362;7.370;2022-12-10T07:16:16;18.73;;;12.17;;
12884;SDS011;6510;51.362;7.370;2022-12-10T07:18:44;22.90;;;12.63;;
12884;SDS011;6510;51.362;7.370;2022-12-10T07:21:18;17.37;;;11.63;;
12884;SDS011;6510;51.362;7.370;2022-12-10T07:23:44;20.67;;;11.70;;
12884;SDS011;6510;51.362;7.370;2022-12-10T07:26:10;20.30;;;12.20;;
12884;SDS011;6510;51.362;7.370;2022-12-10T07:28:36;20.20;;;12.27;;
12884;SDS011;6510;51.362;7.370;2022-12-10T07:31:02;19.90;;;11.90;;
12884;SDS011;6510;51.362;7.370;2022-12-10T07:33:29;23.73;;;12.10;;
12884;SDS011;6510;51.362;7.370;2022-12-10T07:35:55;19.70;;;11.63;;
12884;SDS011;6510;51.362;7.370;2022-12-10T07:38:22;20.70;;;12.13;;
12884;SDS011;6510;51.362;7.370;2022-12-10T07:40:48;18.70;;;11.17;;
12884;SDS011;6510;51.362;7.370;2022-12-10T07:43:14;19.67;;;12.07;;
12884;SDS011;6510;51.362;7.370;2022-12-10T07:45:40;20.60;;;12.57;;
12884;SDS011;6510;51.362;7.370;2022-12-10T07:48:06;22.10;;;11.60;;
12884;SDS011;6510;51.362;7.370;2022-12-10T07:50:31;20.07;;;11.77;;
12884;SDS011;6510;51.362;7.370;2022-12-10T07:52:57;21.07;;;13.10;;
12884;SDS011;6510;51.362;7.370;2022-12-10T07:55:22;19.73;;;12.60;;
12884;SDS011;6510;51.362;7.370;2022-12-10T07:57:48;22.97;;;12.93;;
12884;SDS011;6510;51.362;7.370;2022-12-10T08:00:14;22.37;;;13.00;;
12884;SDS011;6510;51.362;7.370;2022-12-10T08:02:39;23.80;;;13.37;;
12884;SDS011;6510;51.362;7.370;2022-12-10T08:05:05;25.33;;;14.30;;
12884;SDS011;6510;51.362;7.370;2022-12-10T08:07:32;20.40;;;13.27;;
12884;SDS011;6510;51.362;7.370;2022-12-10T08:09:58;27.13;;;14.33;;
12884;SDS011;6510;51.362;7.370;2022-12-10T08:12:23;22.53;;;12.53;;
12884;SDS011;6510;51.362;7.370;2022-12-10T08:14:49;21.47;;;13.50;;
12884;SDS011;6510;51.362;7.370;2022-12-10T08:17:15;21.53;;;13.43;;
12884;SDS011;6510;51.362;7.370;2022-12-10T08:19:40;22.30;;;13.87;;
12884;SDS011;6510;51.362;7.370;2022-12-10T08:22:06;18.63;;;12.70;;
12884;SDS011;6510;51.362;7.370;2022-12-10T08:24:32;20.67;;;13.47;;
12884;SDS011;6510;51.362;7.370;2022-12-10T08:26:57;22.37;;;13.93;;
12884;SDS011;6510;51.362;7.370;2022-12-10T08:29:23;17.77;;;11.87;;
12884;SDS011;6510;51.362;7.370;2022-12-10T08:31:48;20.17;;;12.60;;
12884;SDS011;6510;51.362;7.370;2022-12-10T08:34:15;18.80;;;12.10;;
12884;SDS011;6510;51.362;7.370;2022-12-10T08:36:42;18.80;;;12.07;;
12884;SDS011;6510;51.362;7.370;2022-12-10T08:39:09;22.57;;;13.97;;
12884;SDS011;6510;51.362;7.370;2022-12-10T08:41:35;16.87;;;11.57;;
12884;SDS011;6510;51.362;7.370;2022-12-10T08:44:01;18.27;;;12.53;;
12884;SDS011;6510;51.362;7.370;2022-12-10T08:46:27;18.47;;;12.07;;
12884;SDS011;6510;51.362;7.370;2022-12-10T08:48:53;19.00;;;12.20;;
12884;SDS011;6510;51.362;7.370;2022-12-10T08:51:19;18.17;;;11.23;;
12884;SDS011;6510;51.362;7.370;2022-12-10T08:53:45;20.27;;;12.70;;
12884;SDS011;6510;51.362;7.370;2022-12-10T08:56:11;19.37;;;10.90;;
12884;SDS011;6510;51.362;7.370;2022-12-10T08:58:37;19.83;;;11.50;;
12884;SDS011;6510;51.362;7.370;2022-12-10T09:01:11;16.97;;;11.07;;
12884;SDS011;6510;51.362;7.370;2022-12-10T09:03:39;20.63;;;11.10;;
12884;SDS011;6510;51.362;7.370;2022-12-10T09:06:05;18.70;;;11.83;;
12884;SDS011;6510;51.362;7.370;2022-12-10T09:08:36;17.97;;;11.70;;
12884;SDS011;6510;51.362;7.370;2022-12-10T09:11:06;16.70;;;11.17;;
12884;SDS011;6510;51.362;7.370;2022-12-10T09:13:33;17.87;;;11.90;;
12884;SDS011;6510;51.362;7.370;2022-12-10T09:15:59;18.00;;;12.43;;
12884;SDS011;6510;51.362;7.370;2022-12-10T09:18:25;18.60;;;12.10;;
12884;SDS011;6510;51.362;7.370;2022-12-10T09:20:50;18.80;;;12.80;;
12884;SDS011;6510;51.362;7.370;2022-12-10T09:23:16;20.40;;;14.30;;
12884;SDS011;6510;51.362;7.370;2022-12-10T09:25:42;20.63;;;13.57;;
12884;SDS011;6510;51.362;7.370;2022-12-10T09:28:07;24.23;;;15.13;;
12884;SDS011;6510;51.362;7.370;2022-12-10T09:30:33;22.23;;;14.03;;
12884;SDS011;6510;51.362;7.370;2022-12-10T09:32:59;24.40;;;15.70;;
12884;SDS011;6510;51.362;7.370;2022-12-10T09:35:24;19.73;;;13.63;;
12884;SDS011;6510;51.362;7.370;2022-12-10T09:37:50;19.60;;;12.57;;
12884;SDS011;6510;51.362;7.370;2022-12-10T09:40:21;18.87;;;12.70;;
12884;SDS011;6510;51.362;7.370;2022-12-10T09:43:14;18.37;;;12.57;;
12884;SDS011;6510;51.362;7.370;2022-12-10T09:45:59;19.93;;;12.73;;
12884;SDS011;6510;51.362;7.370;2022-12-10T09:48:30;21.57;;;13.87;;
12884;SDS011;6510;51.362;7.370;2022-12-10T09:53:46;20.07;;;13.03;;
12884;SDS011;6510;51.362;7.370;2022-12-10T09:56:16;21.73;;;15.20;;
12884;SDS011;6510;51.362;7.370;2022-12-10T09:58:46;24.23;;;15.90;;
12884;SDS011;6510;51.362;7.370;2022-12-10T10:01:12;23.00;;;15.10;;
12884;SDS011;6510;51.362;7.370;2022-12-10T10:03:42;22.17;;;14.47;;
12884;SDS011;6510;51.362;7.370;2022-12-10T10:06:14;21.07;;;14.43;;
12884;SDS011;6510;51.362;7.370;2022-12-10T10:08:42;23.43;;;14.83;;
12884;SDS011;6510;51.362;7.370;2022-12-10T10:11:17;21.47;;;13.90;;
12884;SDS011;6510;51.362;7.370;2022-12-10T10:16:24;24.07;;;14.67;;
12884;SDS011;6510;51.362;7.370;2022-12-10T10:19:25;24.37;;;14.53;;
12884;SDS011;6510;51.362;7.370;2022-12-10T10:21:52;22.37;;;14.93;;
12884;SDS011;6510;51.362;7.370;2022-12-10T10:24:20;23.00;;;14.77;;
12884;SDS011;6510;51.362;7.370;2022-12-10T10:26:49;22.33;;;15.07;;
12884;SDS011;6510;51.362;7.370;2022-12-10T10:29:18;29.27;;;16.93;;
12884;SDS011;6510;51.362;7.370;2022-12-10T10:31:46;28.30;;;16.90;;
12884;SDS011;6510;51.362;7.370;2022-12-10T10:34:17;30.80;;;20.10;;
12884;SDS011;6510;51.362;7.370;2022-12-10T10:36:44;32.47;;;19.10;;
12884;SDS011;6510;51.362;7.370;2022-12-10T10:41:42;39.97;;;21.10;;
12884;SDS011;6510;51.362;7.370;2022-12-10T10:44:13;44.17;;;22.80;;
12884;SDS011;6510;51.362;7.370;2022-12-10T10:46:41;41.23;;;22.47;;
12884;SDS011;6510;51.362;7.370;2022-12-10T10:51:43;43.50;;;22.97;;
12884;SDS011;6510;51.362;7.370;2022-12-10T10:54:10;42.90;;;22.00;;
12884;SDS011;6510;51.362;7.370;2022-12-10T10:56:42;40.70;;;22.10;;
12884;SDS011;6510;51.362;7.370;2022-12-10T11:01:51;43.30;;;21.07;;
12884;SDS011;6510;51.362;7.370;2022-12-10T11:04:21;44.57;;;21.70;;
12884;SDS011;6510;51.362;7.370;2022-12-10T11:06:54;42.23;;;19.97;;
12884;SDS011;6510;51.362;7.370;2022-12-10T11:09:26;46.87;;;23.10;;
12884;SDS011;6510;51.362;7.370;2022-12-10T11:11:59;46.33;;;20.93;;
12884;SDS011;6510;51.362;7.370;2022-12-10T11:14:45;47.53;;;21.77;;
12884;SDS011;6510;51.362;7.370;2022-12-10T11:22:52;47.33;;;21.97;;
12884;SDS011;6510;51.362;7.370;2022-12-10T11:25:33;45.63;;;21.63;;
12884;SDS011;6510;51.362;7.370;2022-12-10T11:28:25;48.63;;;22.87;;
12884;SDS011;6510;51.362;7.370;2022-12-10T11:31:12;46.20;;;23.03;;
12884;SDS011;6510;51.362;7.370;2022-12-10T11:37:09;46.07;;;22.40;;
12884;SDS011;6510;51.362;7.370;2022-12-10T11:39:47;50.73;;;23.40;;
12884;SDS011;6510;51.362;7.370;2022-12-10T11:58:51;56.77;;;28.43;;
12884;SDS011;6510;51.362;7.370;2022-12-10T12:01:46;45.73;;;21.63;;
12884;SDS011;6510;51.362;7.370;2022-12-10T12:04:41;46.17;;;21.60;;
12884;SDS011;6510;51.362;7.370;2022-12-10T12:13:03;41.40;;;20.93;;
12884;SDS011;6510;51.362;7.370;2022-12-10T12:15:39;47.77;;;22.20;;
12884;SDS011;6510;51.362;7.370;2022-12-10T12:26:45;45.40;;;21.40;;
12884;SDS011;6510;51.362;7.370;2022-12-10T12:29:21;41.97;;;21.67;;
12884;SDS011;6510;51.362;7.370;2022-12-10T12:37:22;41.77;;;20.63;;
12884;SDS011;6510;51.362;7.370;2022-12-10T12:40:03;37.70;;;20.27;;
12884;SDS011;6510;51.362;7.370;2022-12-10T12:42:41;41.17;;;21.43;;
12884;SDS011;6510;51.362;7.370;2022-12-10T12:45:12;43.87;;;21.83;;
12884;SDS011;6510;51.362;7.370;2022-12-10T12:47:58;40.93;;;21.17;;
12884;SDS011;6510;51.362;7.370;2022-12-10T12:50:37;49.57;;;21.73;;
12884;SDS011;6510;51.362;7.370;2022-12-10T12:53:16;33.63;;;18.00;;
12884;SDS011;6510;51.362;7.370;2022-12-10T12:55:46;36.20;;;19.23;;
12884;SDS011;6510;51.362;7.370;2022-12-10T13:01:26;36.23;;;18.80;;
12884;SDS011;6510;51.362;7.370;2022-12-10T13:03:59;35.17;;;19.03;;
12884;SDS011;6510;51.362;7.370;2022-12-10T13:09:46;39.60;;;21.07;;
12884;SDS011;6510;51.362;7.370;2022-12-10T13:17:35;34.90;;;19.10;;
12884;SDS011;6510;51.362;7.370;2022-12-10T13:23:00;38.97;;;20.40;;
12884;SDS011;6510;51.362;7.370;2022-12-10T13:28:51;31.97;;;18.83;;
12884;SDS011;6510;51.362;7.370;2022-12-10T13:41:42;38.97;;;19.90;;
12884;SDS011;6510;51.362;7.370;2022-12-10T13:44:49;40.10;;;20.10;;
12884;SDS011;6510;51.362;7.370;2022-12-10T13:48:30;37.10;;;19.60;;
12884;SDS011;6510;51.362;7.370;2022-12-10T13:51:11;43.33;;;21.23;;
12884;SDS011;6510;51.362;7.370;2022-12-10T13:56:42;37.77;;;20.23;;
12884;SDS011;6510;51.362;7.370;2022-12-10T14:02:17;39.00;;;19.87;;
12884;SDS011;6510;51.362;7.370;2022-12-10T14:07:59;38.57;;;20.00;;
12884;SDS011;6510;51.362;7.370;2022-12-10T14:10:29;41.60;;;21.00;;
12884;SDS011;6510;51.362;7.370;2022-12-10T14:12:57;34.80;;;20.07;;
12884;SDS011;6510;51.362;7.370;2022-12-10T14:15:24;41.67;;;20.70;;
12884;SDS011;6510;51.362;7.370;2022-12-10T14:17:56;39.20;;;21.90;;
12884;SDS011;6510;51.362;7.370;2022-12-10T14:20:29;41.17;;;22.23;;
12884;SDS011;6510;51.362;7.370;2022-12-10T14:22:57;35.37;;;20.37;;
12884;SDS011;6510;51.362;7.370;2022-12-10T14:25:48;33.43;;;18.97;;
12884;SDS011;6510;51.362;7.370;2022-12-10T14:28:16;44.23;;;22.53;;
12884;SDS011;6510;51.362;7.370;2022-12-10T14:30:46;38.13;;;20.53;;
12884;SDS011;6510;51.362;7.370;2022-12-10T14:33:18;38.10;;;19.83;;
12884;SDS011;6510;51.362;7.370;2022-12-10T14:35:48;44.07;;;21.47;;
12884;SDS011;6510;51.362;7.370;2022-12-10T14:38:19;38.80;;;21.00;;
12884;SDS011;6510;51.362;7.370;2022-12-10T14:40:48;42.80;;;22.00;;
12884;SDS011;6510;51.362;7.370;2022-12-10T14:43:18;47.00;;;22.10;;
12884;SDS011;6510;51.362;7.370;2022-12-10T14:45:52;45.53;;;22.07;;
12884;SDS011;6510;51.362;7.370;2022-12-10T14:48:21;40.20;;;20.83;;
12884;SDS011;6510;51.362;7.370;2022-12-10T14:50:47;38.97;;;19.83;;
12884;SDS011;6510;51.362;7.370;2022-12-10T14:53:23;37.93;;;19.93;;
12884;SDS011;6510;51.362;7.370;2022-12-10T14:55:53;43.37;;;21.90;;
12884;SDS011;6510;51.362;7.370;2022-12-10T14:58:26;37.47;;;19.03;;
12884;SDS011;6510;51.362;7.370;2022-12-10T15:01:01;39.00;;;19.93;;
12884;SDS011;6510;51.362;7.370;2022-12-10T15:03:29;39.10;;;20.53;;
12884;SDS011;6510;51.362;7.370;2022-12-10T15:05:58;40.33;;;21.60;;
12884;SDS011;6510;51.362;7.370;2022-12-10T15:08:26;38.60;;;20.20;;
12884;SDS011;6510;51.362;7.370;2022-12-10T15:10:58;37.83;;;19.00;;
12884;SDS011;6510;51.362;7.370;2022-12-10T15:13:33;38.87;;;21.33;;
12884;SDS011;6510;51.362;7.370;2022-12-10T15:16:04;40.20;;;21.10;;
12884;SDS011;6510;51.362;7.370;2022-12-10T15:18:36;38.13;;;19.17;;
12884;SDS011;6510;51.362;7.370;2022-12-10T15:21:10;33.17;;;18.87;;
12884;SDS011;6510;51.362;7.370;2022-12-10T15:23:38;37.77;;;22.03;;
12884;SDS011;6510;51.362;7.370;2022-12-10T15:28:45;41.07;;;21.27;;
12884;SDS011;6510;51.362;7.370;2022-12-10T15:38:51;44.73;;;20.90;;
12884;SDS011;6510;51.362;7.370;2022-12-10T15:49:43;46.73;;;22.53;;
12884;SDS011;6510;51.362;7.370;2022-12-10T15:52:11;40.50;;;20.93;;
12884;SDS011;6510;51.362;7.370;2022-12-10T15:54:43;37.70;;;20.10;;
12884;SDS011;6510;51.362;7.370;2022-12-10T15:59:45;45.73;;;22.30;;
12884;SDS011;6510;51.362;7.370;2022-12-10T16:04:51;57.53;;;29.20;;
12884;SDS011;6510;51.362;7.370;2022-12-10T16:07:17;49.10;;;24.43;;
12884;SDS011;6510;51.362;7.370;2022-12-10T16:09:43;44.07;;;22.60;;
12884;SDS011;6510;51.362;7.370;2022-12-10T16:12:26;44.13;;;22.27;;
12884;SDS011;6510;51.362;7.370;2022-12-10T16:14:58;48.17;;;23.17;;
12884;SDS011;6510;51.362;7.370;2022-12-10T16:23:30;52.50;;;25.30;;
12884;SDS011;6510;51.362;7.370;2022-12-10T16:25:56;49.23;;;22.80;;
12884;SDS011;6510;51.362;7.370;2022-12-10T16:28:22;50.47;;;24.03;;
12884;SDS011;6510;51.362;7.370;2022-12-10T16:30:49;49.00;;;23.37;;
12884;SDS011;6510;51.362;7.370;2022-12-10T16:33:20;56.60;;;25.80;;
12884;SDS011;6510;51.362;7.370;2022-12-10T16:35:47;57.03;;;26.97;;
12884;SDS011;6510;51.362;7.370;2022-12-10T16:41:15;53.33;;;25.00;;
12884;SDS011;6510;51.362;7.370;2022-12-10T16:43:42;52.80;;;25.43;;
12884;SDS011;6510;51.362;7.370;2022-12-10T16:46:09;59.50;;;27.17;;
12884;SDS011;6510;51.362;7.370;2022-12-10T16:48:36;58.00;;;26.17;;
12884;SDS011;6510;51.362;7.370;2022-12-10T16:51:02;58.67;;;28.03;;
12884;SDS011;6510;51.362;7.370;2022-12-10T16:53:28;54.73;;;26.77;;
12884;SDS011;6510;51.362;7.370;2022-12-10T16:55:59;61.83;;;27.00;;
12884;SDS011;6510;51.362;7.370;2022-12-10T16:58:24;58.70;;;27.40;;
12884;SDS011;6510;51.362;7.370;2022-12-10T17:00:51;58.87;;;27.37;;
12884;SDS011;6510;51.362;7.370;2022-12-10T17:03:19;61.90;;;28.27;;
12884;SDS011;6510;51.362;7.370;2022-12-10T17:05:47;58.70;;;26.67;;
12884;SDS011;6510;51.362;7.370;2022-12-10T17:08:15;57.13;;;27.03;;
12884;SDS011;6510;51.362;7.370;2022-12-10T17:10:41;62.47;;;27.17;;
12884;SDS011;6510;51.362;7.370;2022-12-10T17:13:25;61.03;;;24.87;;
12884;SDS011;6510;51.362;7.370;2022-12-10T17:15:51;58.33;;;26.00;;
12884;SDS011;6510;51.362;7.370;2022-12-10T17:18:18;61.80;;;25.73;;
12884;SDS011;6510;51.362;7.370;2022-12-10T17:20:45;62.97;;;27.10;;
12884;SDS011;6510;51.362;7.370;2022-12-10T17:23:11;58.67;;;24.83;;
12884;SDS011;6510;51.362;7.370;2022-12-10T17:25:38;48.60;;;22.63;;
12884;SDS011;6510;51.362;7.370;2022-12-10T17:28:04;53.63;;;23.87;;
12884;SDS011;6510;51.362;7.370;2022-12-10T17:30:31;58.60;;;26.33;;